createdAt,value
2018-06-22T00:00:08.105Z,11.9
2018-06-22T00:05:04.968Z,11.8
2018-06-22T00:10:07.938Z,11.7
2018-06-22T00:15:05.728Z,11.7
2018-06-22T00:20:03.203Z,11.6
2018-06-22T00:25:07.526Z,11.6
2018-06-22T00:30:02.884Z,11.6
2018-06-22T00:35:18.514Z,11.5
2018-06-22T00:40:03.326Z,11.5
2018-06-22T00:45:02.620Z,11.4
2018-06-22T00:50:10.596Z,11.4
2018-06-22T00:55:03.328Z,11.4
2018-06-22T01:00:07.699Z,11.3
2018-06-22T01:05:02.908Z,9.7
2018-06-22T01:10:05.262Z,11.2
2018-06-22T01:15:05.601Z,11.3
2018-06-22T01:20:02.995Z,11.2
2018-06-22T01:25:02.546Z,11.2
2018-06-22T01:30:07.941Z,11.1
2018-06-22T01:35:05.791Z,11.1
2018-06-22T01:40:15.292Z,11
2018-06-22T01:45:05.509Z,10.9
2018-06-22T01:50:13.036Z,10.9
2018-06-22T01:55:03.206Z,10.9
2018-06-22T02:00:05.136Z,10.9
2018-06-22T02:05:02.951Z,10.9
2018-06-22T02:10:05.263Z,10.9
2018-06-22T02:15:08.064Z,10.9
2018-06-22T02:20:02.416Z,10.9
2018-06-22T02:25:02.885Z,11
2018-06-22T02:30:03.265Z,10.9
2018-06-22T02:35:02.549Z,10.9
2018-06-22T02:40:02.434Z,10.9
2018-06-22T02:45:12.892Z,4.5
2018-06-22T02:50:03.319Z,10.9
2018-06-22T02:55:05.178Z,10.9
2018-06-22T03:00:05.042Z,11
2018-06-22T03:05:08.003Z,11
2018-06-22T03:10:02.784Z,11
2018-06-22T03:15:03.124Z,11.1
2018-06-22T03:20:05.123Z,11.1
2018-06-22T03:25:02.885Z,11.1
2018-06-22T03:30:05.786Z,11.2
2018-06-22T03:35:02.604Z,11.1
2018-06-22T03:40:02.433Z,0
2018-06-22T03:45:10.351Z,11.2
2018-06-22T03:50:02.680Z,11.2
2018-06-22T03:55:05.525Z,11.3
2018-06-22T04:00:05.436Z,11.3
2018-06-22T04:05:08.238Z,11.4
2018-06-22T04:10:02.977Z,11.4
2018-06-22T04:15:05.824Z,11.4
2018-06-22T04:20:05.788Z,11.4
2018-06-22T04:25:07.722Z,11.4
2018-06-22T04:30:03.085Z,11.4
2018-06-22T04:35:25.115Z,11.4
2018-06-22T04:40:02.907Z,11.4
2018-06-22T04:45:05.759Z,11.5
2018-06-22T04:50:03.033Z,11.5
2018-06-22T04:55:07.434Z,11.6
2018-06-22T05:00:05.722Z,11.6
2018-06-22T05:05:04.984Z,11.6
2018-06-22T05:10:05.326Z,11.6
2018-06-22T05:15:08.199Z,11.6
2018-06-22T05:20:05.175Z,11.6
2018-06-22T05:25:23.148Z,11.6
2018-06-22T05:30:02.453Z,11.6
2018-06-22T05:35:07.959Z,11.8
2018-06-22T05:40:10.496Z,11.8
2018-06-22T05:45:03.227Z,11.8
2018-06-22T05:50:05.034Z,11.9
2018-06-22T05:55:05.383Z,12
2018-06-22T06:00:02.730Z,12
2018-06-22T06:05:05.640Z,12.1
2018-06-22T06:10:02.441Z,12.1
2018-06-22T06:15:05.503Z,12.1
2018-06-22T06:20:02.950Z,12.1
2018-06-22T06:25:13.304Z,12.3
2018-06-22T06:30:05.156Z,12.3
2018-06-22T06:35:03.106Z,12.3
2018-06-22T06:40:05.407Z,12.4
2018-06-22T06:45:08.249Z,12.5
2018-06-22T06:50:02.592Z,12.5
2018-06-22T06:55:10.515Z,12.4
2018-06-22T07:00:02.895Z,12.4
2018-06-22T07:05:03.218Z,12.5
2018-06-22T07:10:08.106Z,12.6
2018-06-22T07:15:02.571Z,12.6
2018-06-22T07:20:08.022Z,12.8
2018-06-22T07:25:03.308Z,12.8
2018-06-22T07:30:05.191Z,12.7
2018-06-22T07:35:02.990Z,12.7
2018-06-22T07:40:07.833Z,13.1
2018-06-22T07:45:04.891Z,13.4
2018-06-22T07:50:05.679Z,13.3
2018-06-22T07:55:02.520Z,13.3
2018-06-22T08:00:05.465Z,13.3
2018-06-22T08:05:03.337Z,13.3
2018-06-22T08:10:03.288Z,13.3
2018-06-22T08:15:05.215Z,13.4
2018-06-22T08:20:02.608Z,13.4
2018-06-22T08:25:05.506Z,13.8
2018-06-22T08:30:02.916Z,13.7
2018-06-22T08:35:03.277Z,13.8
2018-06-22T08:40:05.635Z,14.1
2018-06-22T08:45:02.526Z,14
2018-06-22T08:50:05.611Z,13.7
2018-06-22T08:55:02.660Z,13.7
2018-06-22T09:00:03.053Z,13.2
2018-06-22T09:05:03.326Z,13.1
2018-06-22T09:10:08.397Z,13.7
2018-06-22T09:15:02.609Z,13.7
2018-06-22T09:20:02.906Z,13.6
2018-06-22T09:25:05.695Z,13.6
2018-06-22T09:30:02.950Z,13.6
2018-06-22T09:35:05.725Z,13.5
2018-06-22T09:40:02.453Z,13.5
2018-06-22T09:45:13.016Z,11.8
2018-06-22T09:50:02.613Z,11.8
2018-06-22T09:55:10.505Z,11
2018-06-22T10:00:05.262Z,10.9
2018-06-22T10:05:02.890Z,10.9
2018-06-22T10:10:05.265Z,11
2018-06-22T10:15:02.839Z,11
2018-06-22T10:20:03.056Z,11.1
2018-06-22T10:25:05.725Z,11.4
2018-06-22T10:30:02.846Z,11.3
2018-06-22T10:35:08.066Z,12
2018-06-22T10:40:05.164Z,12.5
2018-06-22T10:45:07.846Z,13
2018-06-22T10:50:03.032Z,13
2018-06-22T10:55:03.231Z,13.7
2018-06-22T11:00:04.977Z,14.4
2018-06-22T11:05:02.582Z,14.4
2018-06-22T11:10:03.162Z,14.6
2018-06-22T11:15:02.377Z,12.3
2018-06-22T11:20:05.262Z,10.8
2018-06-22T11:25:02.840Z,10.8
2018-06-22T11:30:08.048Z,10.8
2018-06-22T11:35:02.388Z,10.8
2018-06-22T11:40:10.669Z,11.3
2018-06-22T11:45:05.748Z,11.6
2018-06-22T11:50:12.991Z,11.9
2018-06-22T11:55:05.554Z,12.1
2018-06-22T12:00:10.291Z,12.3
2018-06-22T12:05:05.367Z,12.8
2018-06-22T12:10:05.419Z,13.1
2018-06-22T12:15:05.594Z,13.4
2018-06-22T12:20:02.775Z,13.4
2018-06-22T12:25:05.428Z,14
2018-06-22T12:30:05.017Z,14.4
2018-06-22T12:35:02.610Z,14.4
2018-06-22T12:40:03.039Z,14.3
2018-06-22T12:45:03.209Z,14.1
2018-06-22T12:50:02.528Z,14.1
2018-06-22T12:55:02.637Z,14.4
2018-06-22T13:00:02.671Z,14.7
2018-06-22T13:05:02.795Z,15.1
2018-06-22T13:10:05.790Z,15.7
2018-06-22T13:15:05.137Z,16
2018-06-22T13:20:03.265Z,16
2018-06-22T13:25:02.392Z,16.1
2018-06-22T13:30:02.435Z,15.9
2018-06-22T13:35:02.572Z,15.9
2018-06-22T13:40:08.137Z,19.2
2018-06-22T13:45:05.717Z,19.3
2018-06-22T13:50:02.865Z,19.3
2018-06-22T13:55:02.974Z,18.4
2018-06-22T14:00:05.569Z,17.9
2018-06-22T14:05:03.177Z,17.9
2018-06-22T14:10:07.668Z,17
2018-06-22T14:15:02.755Z,17.1
2018-06-22T14:20:05.459Z,17.7
2018-06-22T14:25:03.205Z,17.7
2018-06-22T14:30:03.289Z,17.4
2018-06-22T14:35:04.932Z,17
2018-06-22T14:40:02.387Z,17
2018-06-22T14:45:02.499Z,17
2018-06-22T14:50:02.597Z,17
2018-06-22T14:55:02.726Z,17
2018-06-22T15:00:02.784Z,17
2018-06-22T15:05:05.477Z,16
2018-06-22T15:10:08.111Z,15
2018-06-22T15:15:03.086Z,15
2018-06-22T15:20:08.274Z,15
2018-06-22T15:25:02.276Z,15
2018-06-22T15:30:04.877Z,16.4
2018-06-22T15:35:02.440Z,16.4
2018-06-22T15:40:02.936Z,17.1
2018-06-22T15:45:05.623Z,17.8
2018-06-22T15:50:02.874Z,17.8
2018-06-22T15:55:04.813Z,18.3
2018-06-22T16:00:02.894Z,18.3
2018-06-22T16:05:05.560Z,18.6
2018-06-22T16:10:03.032Z,18.6
2018-06-22T16:15:03.191Z,18.4
2018-06-22T16:20:02.327Z,18.4
2018-06-22T16:25:05.204Z,18
2018-06-22T16:30:02.607Z,18
2018-06-22T16:35:08.281Z,17.4
2018-06-22T16:40:05.649Z,17.3
2018-06-22T16:45:02.634Z,17.3
2018-06-22T16:50:03.224Z,17.4
2018-06-22T16:55:02.791Z,17.3
2018-06-22T17:00:03.257Z,17.3
2018-06-22T17:05:02.578Z,17.3
2018-06-22T17:10:02.480Z,17.3
2018-06-22T17:15:02.928Z,17.1
2018-06-22T17:20:02.491Z,17
2018-06-22T17:25:03.144Z,17
2018-06-22T17:30:02.560Z,17.2
2018-06-22T17:35:03.165Z,17.2
2018-06-22T17:40:03.069Z,17.2
2018-06-22T17:45:02.574Z,17.1
2018-06-22T17:50:03.179Z,17.1
2018-06-22T17:55:02.711Z,16.9
2018-06-22T18:00:03.105Z,16.9
2018-06-22T18:05:02.524Z,16.8
2018-06-22T18:10:02.445Z,16.8
2018-06-22T18:15:03.253Z,16.6
2018-06-22T18:20:02.801Z,16.6
2018-06-22T18:25:02.388Z,16.6
2018-06-22T18:30:02.829Z,16.5
2018-06-22T18:35:03.198Z,16.5
2018-06-22T18:40:03.130Z,16.4
2018-06-22T18:45:02.613Z,16.3
2018-06-22T18:50:03.032Z,16.3
2018-06-22T18:55:02.433Z,16.3
2018-06-22T19:00:02.914Z,16.3
2018-06-22T19:05:02.452Z,16.3
2018-06-22T19:10:05.009Z,16.1
2018-06-22T19:15:02.947Z,16
2018-06-22T19:20:02.461Z,16
2018-06-22T19:25:02.842Z,15.9
2018-06-22T19:30:03.253Z,15.8
2018-06-22T19:35:02.777Z,15.8
2018-06-22T19:40:02.604Z,15.7
2018-06-22T19:45:03.202Z,15.7
2018-06-22T19:50:02.925Z,15.6
2018-06-22T19:55:02.389Z,15.6
2018-06-22T20:00:02.870Z,15.5
2018-06-22T20:05:03.202Z,15.4
2018-06-22T20:10:08.152Z,15.3
2018-06-22T20:15:02.548Z,15.3
2018-06-22T20:20:03.192Z,15.3
2018-06-22T20:25:02.667Z,15.2
2018-06-22T20:30:03.129Z,15.1
2018-06-22T20:35:02.518Z,15.1
2018-06-22T20:40:07.483Z,14.9
2018-06-22T20:45:02.910Z,14.9
2018-06-22T20:50:02.515Z,14.9
2018-06-22T20:55:03.024Z,14.8
2018-06-22T21:00:02.576Z,14.8
2018-06-22T21:05:02.997Z,14.8
2018-06-22T21:10:05.362Z,14.7
2018-06-22T21:15:03.067Z,14.7
2018-06-22T21:20:02.483Z,14.7
2018-06-22T21:25:02.907Z,14.7
2018-06-22T21:30:03.260Z,14.7
2018-06-22T21:35:02.562Z,14.7
2018-06-22T21:40:02.472Z,14.7
2018-06-22T21:45:02.885Z,14.7
2018-06-22T21:50:03.315Z,14.7
2018-06-22T21:55:02.728Z,14.6
2018-06-22T22:00:03.110Z,14.6
2018-06-22T22:05:02.526Z,14.5
2018-06-22T22:10:02.434Z,14.4
2018-06-22T22:15:02.902Z,14.4
2018-06-22T22:20:02.449Z,14.3
2018-06-22T22:25:02.799Z,14.2
2018-06-22T22:30:03.136Z,14.2
2018-06-22T22:35:02.532Z,14.1
2018-06-22T22:40:02.483Z,14.1
2018-06-22T22:45:02.959Z,14
2018-06-22T22:50:03.348Z,13.7
2018-06-22T22:55:02.745Z,13.7
2018-06-22T23:00:03.122Z,13.7
2018-06-22T23:05:02.513Z,13.7
2018-06-22T23:10:02.403Z,13.6
2018-06-22T23:15:02.781Z,13.1
2018-06-22T23:20:03.218Z,12.9
2018-06-22T23:25:02.650Z,12.9
2018-06-22T23:30:03.012Z,13.1
2018-06-22T23:35:02.452Z,13.2
2018-06-22T23:40:04.969Z,13.3
2018-06-22T23:45:02.892Z,13.3
2018-06-22T23:50:02.500Z,13.3
2018-06-22T23:55:03.049Z,13.3
